Time;durP1;ratioP1;P1;durP2;ratioP2;P2;SDS_P1;SDS_P2;PMS_P1;PMS_P2;Temp;Humidity;BMP_temperature;BMP_pressure;BME280_temperature;BME280_humidity;BME280_pressure;Samples;Min_cycle;Max_cycle;Signal;HPM_P1;HPM_P2
2021/08/03 00:00:10;;;;;;;3.28;2.83;;;;;;;11.65;100.00;95855.75;1035932;28;20026;-65
2021/08/03 00:00:41;;;;;;;4.07;2.85;;;;;;;11.65;100.00;95858.38;1034692;28;20077;-65
2021/08/03 00:01:11;;;;;;;5.38;3.20;;;;;;;11.68;100.00;95862.31;1033610;28;20030;-64
2021/08/03 00:01:42;;;;;;;3.10;2.80;;;;;;;11.67;100.00;95868.59;1030881;28;20479;-62
2021/08/03 00:02:12;;;;;;;4.32;2.60;;;;;;;11.65;100.00;95863.63;1038658;28;20029;-65
2021/08/03 00:02:44;;;;;;;3.95;3.45;;;;;;;11.67;100.00;95861.53;1031703;28;20019;-64
2021/08/03 00:03:15;;;;;;;4.45;2.92;;;;;;;11.64;100.00;95850.78;1030688;28;20041;-65
2021/08/03 00:04:03;;;;;;;4.95;3.33;;;;;;;11.67;100.00;95861.53;1035483;28;20271;-65
2021/08/03 00:04:40;;;;;;;4.30;2.83;;;;;;;11.68;100.00;95862.31;1035609;28;20017;-64
2021/08/03 00:05:13;;;;;;;4.15;3.10;;;;;;;11.68;100.00;95863.09;1042119;28;20274;-65
2021/08/03 00:05:45;;;;;;;4.57;3.05;;;;;;;11.69;100.00;95858.63;1039522;28;20264;-65
2021/08/03 00:06:16;;;;;;;5.45;2.70;;;;;;;11.66;100.00;95861.78;1041243;28;20346;-64
2021/08/03 00:06:56;;;;;;;4.28;3.05;;;;;;;11.65;100.00;95863.63;1043899;28;20274;-64
2021/08/03 00:07:27;;;;;;;4.28;3.08;;;;;;;11.67;100.00;95858.09;1042024;28;20306;-64
2021/08/03 00:08:27;;;;;;;6.88;3.00;;;;;;;11.64;100.00;95858.66;1038399;28;20033;-65
2021/08/03 00:08:58;;;;;;;6.88;3.20;;;;;;;11.66;100.00;95869.66;1037805;28;20033;-63
2021/08/03 00:09:30;;;;;;;4.00;2.72;;;;;;;11.59;100.00;95854.19;1040198;28;20022;-65
2021/08/03 00:10:00;;;;;;;4.13;2.83;;;;;;;11.61;100.00;95861.81;1033312;28;20030;-64
2021/08/03 00:10:31;;;;;;;4.05;3.05;;;;;;;11.61;100.00;95859.19;1036069;28;20272;-65
2021/08/03 00:11:03;;;;;;;3.17;2.70;;;;;;;11.62;100.00;95866.78;1028331;28;20026;-65
2021/08/03 00:11:34;;;;;;;5.00;3.33;;;;;;;11.62;100.00;95858.13;1031870;28;20026;-62
2021/08/03 00:12:06;;;;;;;6.10;3.17;;;;;;;11.62;100.00;95861.53;1026856;28;20270;-64
2021/08/03 00:12:36;;;;;;;6.15;3.05;;;;;;;11.62;100.00;95866.78;1024242;28;20510;-64
2021/08/03 00:13:07;;;;;;;3.22;2.80;;;;;;;11.62;100.00;95863.38;1035738;28;20261;-65
2021/08/03 00:13:37;;;;;;;3.47;3.13;;;;;;;11.60;100.00;95862.84;1036023;28;20034;-62
2021/08/03 00:14:11;;;;;;;5.00;3.10;;;;;;;11.63;100.00;95865.72;1039942;28;20027;-64
2021/08/03 00:14:43;;;;;;;6.55;2.83;;;;;;;11.60;100.00;95863.63;1035899;28;20140;-61
2021/08/03 00:15:13;;;;;;;3.70;2.95;;;;;;;11.61;100.00;95864.44;1032050;28;20296;-65
2021/08/03 00:15:44;;;;;;;3.75;3.13;;;;;;;11.61;100.00;95867.84;1032208;28;20273;-61
2021/08/03 00:16:15;;;;;;;5.25;2.80;;;;;;;11.61;100.00;95864.44;1032161;28;20084;-64
2021/08/03 00:16:45;;;;;;;4.50;3.10;;;;;;;11.60;100.00;95858.38;1032850;28;20323;-65
2021/08/03 00:17:21;;;;;;;5.60;3.65;;;;;;;11.62;100.00;95863.38;1031807;28;20026;-65
2021/08/03 00:17:52;;;;;;;3.10;2.80;;;;;;;11.60;100.00;95865.47;1036777;28;20018;-65
2021/08/03 00:18:22;;;;;;;6.25;3.30;;;;;;;11.59;100.00;95862.06;1035839;28;20322;-64
2021/08/03 00:18:53;;;;;;;3.50;2.60;;;;;;;11.56;100.00;95859.97;1040807;28;20322;-64
2021/08/03 00:19:25;;;;;;;4.22;3.17;;;;;;;11.59;100.00;95861.28;1031172;28;20018;-65
2021/08/03 00:19:55;;;;;;;4.47;3.03;;;;;;;11.57;100.00;95862.34;1027450;28;20023;-65
2021/08/03 00:20:25;;;;;;;8.85;3.38;;;;;;;11.60;100.00;95854.97;1030954;28;20277;-66
2021/08/03 00:20:57;;;;;;;4.53;3.05;;;;;;;11.61;100.00;95861.81;1028751;28;20050;-64
2021/08/03 00:21:27;;;;;;;2.80;2.55;;;;;;;11.59;100.00;95864.69;1040245;28;20108;-65
2021/08/03 00:21:58;;;;;;;2.78;2.55;;;;;;;11.57;100.00;95857.09;1042942;28;20256;-64
2021/08/03 00:22:28;;;;;;;5.03;3.10;;;;;;;11.57;100.00;95859.72;1039756;28;20021;-65
2021/08/03 00:22:59;;;;;;;2.85;2.55;;;;;;;11.51;100.00;95849.47;1031315;28;20011;-64
2021/08/03 00:23:33;;;;;;;3.70;2.53;;;;;;;11.56;100.00;95860.75;1023499;28;20102;-65
2021/08/03 00:24:04;;;;;;;5.47;2.67;;;;;;;11.53;100.00;95858.66;1027374;28;20262;-63
2021/08/03 00:24:35;;;;;;;4.93;2.88;;;;;;;11.56;100.00;95868.63;1031914;28;20344;-64
2021/08/03 00:25:05;;;;;;;3.60;2.65;;;;;;;11.54;100.00;95860.25;1032688;28;20034;-65
2021/08/03 00:25:36;;;;;;;2.58;2.25;;;;;;;11.53;100.00;95861.28;1034908;28;20817;-65
2021/08/03 00:26:06;;;;;;;8.32;2.85;;;;;;;11.48;100.00;95857.88;1031252;28;20361;-66
2021/08/03 00:26:37;;;;;;;3.15;2.85;;;;;;;11.58;100.00;95868.38;1035335;28;20415;-64
2021/08/03 00:27:08;;;;;;;3.47;2.83;;;;;;;11.55;100.00;95859.19;1036556;28;20498;-64
2021/08/03 00:27:39;;;;;;;6.88;3.40;;;;;;;11.51;100.00;95858.13;1043907;28;20266;-66
2021/08/03 00:28:10;;;;;;;6.90;2.75;;;;;;;11.56;100.00;95859.97;1031017;28;20044;-65
2021/08/03 00:28:40;;;;;;;3.25;2.95;;;;;;;11.53;100.00;95861.28;1037242;28;20346;-65
2021/08/03 00:29:11;;;;;;;5.30;2.92;;;;;;;11.53;100.00;95856.00;1040096;28;20088;-65
2021/08/03 00:29:41;;;;;;;4.00;2.60;;;;;;;11.47;100.00;95845.81;1039552;28;20021;-64
2021/08/03 00:30:12;;;;;;;3.88;2.90;;;;;;;11.54;100.00;95862.09;1031685;28;20022;-65
2021/08/03 00:30:45;;;;;;;3.15;2.50;;;;;;;11.49;100.00;95852.34;1031076;28;20017;-61
2021/08/03 00:31:16;;;;;;;3.65;2.67;;;;;;;11.56;100.00;95857.34;1031888;28;20021;-65
2021/08/03 00:31:49;;;;;;;3.72;2.83;;;;;;;11.54;100.00;95854.19;1036571;28;20355;-61
2021/08/03 00:32:20;;;;;;;3.45;2.47;;;;;;;11.56;100.00;95850.22;1047590;28;20266;-65
2021/08/03 00:32:51;;;;;;;2.33;2.00;;;;;;;11.56;100.00;95852.84;1047162;28;20267;-61
2021/08/03 00:33:24;;;;;;;4.35;2.60;;;;;;;11.58;100.00;95857.88;1047876;28;20025;-65
2021/08/03 00:33:55;;;;;;;4.32;2.67;;;;;;;11.56;100.00;95850.22;1045646;28;20796;-61
2021/08/03 00:34:26;;;;;;;5.28;3.13;;;;;;;11.57;100.00;95854.44;1039703;28;20036;-65
2021/08/03 00:34:56;;;;;;;3.33;2.70;;;;;;;11.56;100.00;95854.69;1039126;28;20762;-61
2021/08/03 00:35:27;;;;;;;3.20;2.90;;;;;;;11.56;100.00;95854.69;1039825;28;20400;-65
2021/08/03 00:35:57;;;;;;;3.00;2.70;;;;;;;11.49;100.00;95849.72;1043609;28;20125;-65
2021/08/03 00:36:29;;;;;;;3.10;2.80;;;;;;;11.54;100.00;95847.09;1039326;28;20038;-65
2021/08/03 00:36:59;;;;;;;3.28;2.47;;;;;;;11.56;100.00;95855.50;1035805;28;20034;-66
2021/08/03 00:37:30;;;;;;;4.68;2.88;;;;;;;11.57;100.00;95857.09;1035377;28;20268;-65
2021/08/03 00:38:00;;;;;;;3.15;2.47;;;;;;;11.59;100.00;95850.75;1035442;28;20128;-65
2021/08/03 00:38:31;;;;;;;4.72;2.80;;;;;;;11.55;100.00;95843.41;1039618;28;20032;-65
2021/08/03 00:39:02;;;;;;;4.30;2.85;;;;;;;11.52;100.00;95840.53;1037534;28;20641;-65
2021/08/03 00:39:32;;;;;;;2.35;2.15;;;;;;;11.56;100.00;95855.50;1035846;28;20391;-65
2021/08/03 00:40:05;;;;;;;4.40;2.67;;;;;;;11.57;100.00;95851.81;1030772;28;20050;-64
2021/08/03 00:40:37;;;;;;;3.88;2.60;;;;;;;11.56;100.00;95849.44;1032175;28;20058;-64
2021/08/03 00:41:12;;;;;;;3.22;2.63;;;;;;;11.55;100.00;95845.25;1028751;28;20270;-65
2021/08/03 00:41:58;;;;;;;5.05;3.05;;;;;;;11.47;100.00;95837.91;1035410;28;20264;-64
2021/08/03 00:42:29;;;;;;;4.75;3.00;;;;;;;11.52;100.00;95854.44;1031639;28;20308;-64
2021/08/03 00:43:00;;;;;;;5.45;3.17;;;;;;;11.51;100.00;95852.88;1031353;28;20912;-65
2021/08/03 00:43:30;;;;;;;4.00;3.08;;;;;;;11.48;100.00;95853.41;1033819;28;20117;-62
2021/08/03 00:44:01;;;;;;;2.92;2.65;;;;;;;11.49;100.00;95851.56;1031780;28;20074;-65
2021/08/03 00:44:38;;;;;;;4.22;2.70;;;;;;;11.45;100.00;95859.19;1031780;28;20018;-64
2021/08/03 00:45:08;;;;;;;4.88;2.75;;;;;;;11.45;100.00;95853.94;1035324;28;20169;-65
2021/08/03 00:45:39;;;;;;;4.93;2.92;;;;;;;11.39;100.00;95844.47;1032490;28;20890;-61
2021/08/03 00:46:09;;;;;;;5.18;3.20;;;;;;;11.46;100.00;95850.25;1031764;28;20038;-65
2021/08/03 00:46:40;;;;;;;5.18;3.30;;;;;;;11.41;100.00;95847.63;1029391;28;20086;-65
2021/08/03 00:47:11;;;;;;;4.53;3.33;;;;;;;11.47;100.00;95851.84;1031570;28;20041;-64
2021/08/03 00:47:41;;;;;;;7.32;3.30;;;;;;;11.45;100.00;95858.41;1035074;28;20025;-64
2021/08/03 00:48:15;;;;;;;6.22;2.70;;;;;;;11.42;100.00;95846.59;1032166;28;20274;-65
2021/08/03 00:48:45;;;;;;;3.47;2.80;;;;;;;11.44;100.00;95855.00;1036312;28;20793;-65
2021/08/03 00:49:16;;;;;;;3.63;3.20;;;;;;;11.45;100.00;95855.78;1032176;28;20029;-65
2021/08/03 00:49:46;;;;;;;3.42;2.95;;;;;;;11.36;100.00;95845.00;1035791;28;20026;-65
2021/08/03 00:50:17;;;;;;;3.42;2.80;;;;;;;11.42;100.00;95854.47;1035185;28;20145;-65
2021/08/03 00:50:51;;;;;;;3.33;2.80;;;;;;;11.38;100.00;95852.63;1034967;28;20653;-65
2021/08/03 00:51:21;;;;;;;3.00;2.70;;;;;;;11.43;100.00;95850.00;1032978;28;20025;-64
2021/08/03 00:51:52;;;;;;;3.63;2.90;;;;;;;11.42;100.00;95849.22;1031432;28;20280;-64
2021/08/03 00:52:22;;;;;;;4.85;3.05;;;;;;;11.41;100.00;95852.91;1031551;28;20566;-64
2021/08/03 00:52:53;;;;;;;5.40;3.20;;;;;;;11.43;100.00;95847.38;1031103;28;20030;-66
2021/08/03 00:53:23;;;;;;;5.10;3.03;;;;;;;11.39;100.00;95852.38;1031772;28;20030;-65
2021/08/03 00:53:54;;;;;;;3.50;2.80;;;;;;;11.41;100.00;95858.16;1031660;28;20027;-65
2021/08/03 00:54:24;;;;;;;5.65;3.60;;;;;;;11.43;100.00;95850.78;1031552;28;20034;-65
2021/08/03 00:54:55;;;;;;;4.55;2.80;;;;;;;11.47;100.00;95851.06;1035516;28;20053;-65
2021/08/03 00:55:25;;;;;;;3.75;3.30;;;;;;;11.38;100.00;95832.41;1035546;28;20030;-64
2021/08/03 00:55:56;;;;;;;3.40;2.63;;;;;;;11.48;100.00;95853.41;1035751;28;20048;-64
2021/08/03 00:56:28;;;;;;;3.92;3.22;;;;;;;11.49;100.00;95851.56;1031089;28;20042;-64
2021/08/03 00:56:58;;;;;;;6.03;3.42;;;;;;;11.47;100.00;95857.09;1031525;28;20266;-65
2021/08/03 00:57:29;;;;;;;3.35;3.00;;;;;;;11.46;100.00;95858.13;1027907;28;20646;-64
2021/08/03 00:57:59;;;;;;;4.50;2.90;;;;;;;11.43;100.00;95856.03;1038964;28;20460;-65
2021/08/03 00:58:30;;;;;;;4.38;3.30;;;;;;;11.42;100.00;95853.69;1035892;28;20025;-63
2021/08/03 00:59:00;;;;;;;5.35;3.10;;;;;;;11.40;100.00;95840.00;1035738;28;20080;-65
2021/08/03 00:59:30;;;;;;;4.05;3.33;;;;;;;11.44;100.00;95857.63;1031435;28;20395;-62
2021/08/03 01:00:04;;;;;;;4.30;3.40;;;;;;;11.39;100.00;95843.69;1031252;28;20064;-64
2021/08/03 01:00:34;;;;;;;4.35;3.35;;;;;;;11.41;100.00;95852.91;1043855;28;20025;-62
2021/08/03 01:01:06;;;;;;;6.13;2.90;;;;;;;11.40;100.00;95850.50;1044740;28;20270;-64
2021/08/03 01:01:36;;;;;;;5.05;3.00;;;;;;;11.38;100.00;95850.00;1037079;28;20757;-65
2021/08/03 01:02:07;;;;;;;3.40;2.70;;;;;;;11.37;100.00;95843.97;1035545;28;20279;-65
2021/08/03 01:02:37;;;;;;;4.53;3.50;;;;;;;11.43;100.00;95853.41;1035579;28;20034;-64
2021/08/03 01:03:08;;;;;;;5.13;3.28;;;;;;;11.42;100.00;95854.47;1034867;28;20026;-65
2021/08/03 01:03:38;;;;;;;4.15;3.17;;;;;;;11.42;100.00;95849.22;1039717;28;20026;-65
2021/08/03 01:04:11;;;;;;;4.50;3.45;;;;;;;11.41;100.00;95852.91;1039822;28;20029;-65
2021/08/03 01:04:41;;;;;;;5.05;2.90;;;;;;;11.38;100.00;95855.25;1043785;28;20035;-65
2021/08/03 01:05:13;;;;;;;4.28;3.50;;;;;;;11.37;100.00;95851.03;1046835;28;20799;-65
2021/08/03 01:05:53;;;;;;;3.65;3.00;;;;;;;11.35;100.00;95846.06;1040313;28;20025;-64
2021/08/03 01:06:29;;;;;;;4.70;3.70;;;;;;;11.23;100.00;95825.34;1039684;28;20764;-65
2021/08/03 01:07:23;;;;;;;3.42;3.13;;;;;;;11.43;100.00;95860.50;1027734;28;20030;-61
2021/08/03 01:08:09;;;;;;;4.85;3.75;;;;;;;11.43;100.00;95858.66;1040063;28;20272;-65
2021/08/03 01:08:55;;;;;;;8.30;3.70;;;;;;;11.42;100.00;95851.06;1042556;28;20700;-64
2021/08/03 01:09:55;;;;;;;4.05;3.40;;;;;;;11.30;100.00;95846.06;1047704;28;20270;-65
2021/08/03 01:10:35;;;;;;;5.25;3.63;;;;;;;11.33;100.00;95856.84;1045555;28;20267;-65
2021/08/03 01:11:23;;;;;;;4.05;3.50;;;;;;;11.37;100.00;95857.13;1039867;28;20041;-65
2021/08/03 01:11:59;;;;;;;4.18;3.50;;;;;;;11.35;100.00;95845.28;1040868;28;20029;-64
2021/08/03 01:12:32;;;;;;;6.30;4.03;;;;;;;11.35;100.00;95848.69;1035262;28;20268;-65
2021/08/03 01:13:41;;;;;;;5.38;3.88;;;;;;;11.29;100.00;95852.38;1039063;28;20279;-65
2021/08/03 01:14:29;;;;;;;6.60;3.85;;;;;;;11.32;100.00;95854.47;1044762;28;20276;-64
2021/08/03 01:15:14;;;;;;;4.57;4.03;;;;;;;11.32;100.00;95857.88;1047381;28;20271;-64
2021/08/03 01:15:52;;;;;;;5.57;3.75;;;;;;;11.34;100.00;95857.63;1039588;28;20310;-65
2021/08/03 01:16:29;;;;;;;6.63;4.30;;;;;;;11.32;100.00;95857.09;1035513;28;20269;-65
2021/08/03 01:17:04;;;;;;;4.70;4.00;;;;;;;11.33;100.00;95856.03;1039393;28;21153;-65
2021/08/03 01:17:56;;;;;;;5.35;4.18;;;;;;;11.34;100.00;95852.38;1038054;28;20268;-65
2021/08/03 01:18:38;;;;;;;5.80;4.40;;;;;;;11.36;100.00;95860.78;1043482;28;20263;-65
2021/08/03 01:19:35;;;;;;;5.70;4.22;;;;;;;11.37;100.00;95851.84;1040054;28;20327;-65
2021/08/03 01:20:15;;;;;;;5.35;4.40;;;;;;;11.28;100.00;95848.19;1043618;28;20324;-64
2021/08/03 01:21:23;;;;;;;7.28;3.85;;;;;;;11.33;100.00;95861.28;1036158;28;20311;-65
2021/08/03 01:22:04;;;;;;;5.20;3.60;;;;;;;11.33;100.00;95861.28;1038273;28;20026;-63
2021/08/03 01:22:35;;;;;;;7.00;4.45;;;;;;;11.36;100.00;95860.78;1042735;28;20255;-66
2021/08/03 01:23:27;;;;;;;6.22;4.70;;;;;;;11.37;100.00;95865.00;1043252;28;20282;-65
2021/08/03 01:24:11;;;;;;;6.40;4.15;;;;;;;11.33;100.00;95862.09;1031415;28;20030;-66
2021/08/03 01:24:47;;;;;;;5.65;4.45;;;;;;;11.35;100.00;95861.81;1038898;28;20271;-65
2021/08/03 01:25:26;;;;;;;10.73;4.97;;;;;;;11.36;100.00;95858.13;1043743;28;20368;-65
2021/08/03 01:26:21;;;;;;;7.47;4.22;;;;;;;11.33;100.00;95856.84;1035006;28;20260;-65
2021/08/03 01:27:41;;;;;;;7.70;4.40;;;;;;;11.37;100.00;95862.38;1035264;28;20265;-64
2021/08/03 01:28:15;;;;;;;5.20;3.50;;;;;;;11.35;100.00;95859.19;1034587;28;20264;-64
2021/08/03 01:28:45;;;;;;;5.03;4.20;;;;;;;11.35;100.00;95864.47;1036042;28;20257;-65
2021/08/03 01:29:17;;;;;;;5.43;4.28;;;;;;;11.38;100.00;95860.53;1043555;28;20358;-65
2021/08/03 01:29:48;;;;;;;7.10;4.47;;;;;;;11.33;100.00;95858.66;1043250;28;20036;-67
2021/08/03 01:30:19;;;;;;;7.43;4.80;;;;;;;11.35;100.00;95866.31;1035622;28;20359;-65
2021/08/03 01:30:57;;;;;;;6.68;4.65;;;;;;;11.31;100.00;95858.16;1031642;28;20266;-66
2021/08/03 01:31:29;;;;;;;6.35;4.40;;;;;;;11.35;100.00;95861.81;1029960;28;20022;-65
2021/08/03 01:32:04;;;;;;;9.23;4.20;;;;;;;11.32;100.00;95855.25;1030499;28;20273;-64
2021/08/03 01:32:35;;;;;;;8.27;4.90;;;;;;;11.31;100.00;95856.31;1031409;28;20323;-65
2021/08/03 01:33:05;;;;;;;6.35;4.47;;;;;;;11.33;100.00;95858.66;1034282;28;20352;-65
2021/08/03 01:33:37;;;;;;;11.48;4.93;;;;;;;11.30;100.00;95856.56;1031490;28;20025;-65
2021/08/03 01:34:12;;;;;;;7.03;4.40;;;;;;;11.25;100.00;95851.31;1035253;28;20021;-65
2021/08/03 01:34:45;;;;;;;5.50;4.40;;;;;;;11.27;100.00;95851.88;1027257;28;20300;-65
2021/08/03 01:35:15;;;;;;;5.63;4.32;;;;;;;11.28;100.00;95853.44;1035312;28;20264;-65
2021/08/03 01:35:46;;;;;;;6.63;4.40;;;;;;;11.29;100.00;95862.88;1032139;28;21077;-65
2021/08/03 01:36:16;;;;;;;9.52;4.68;;;;;;;11.28;100.00;95853.44;1031343;28;20502;-65
2021/08/03 01:36:50;;;;;;;5.40;4.65;;;;;;;11.27;100.00;95854.50;1035510;28;20029;-65
2021/08/03 01:37:21;;;;;;;10.45;4.80;;;;;;;11.28;100.00;95856.06;1033066;28;20112;-65
2021/08/03 01:37:52;;;;;;;5.38;4.15;;;;;;;11.28;100.00;95843.72;1027410;28;20833;-65
2021/08/03 01:38:22;;;;;;;6.90;3.95;;;;;;;11.24;100.00;95847.91;1030869;28;20336;-65
2021/08/03 01:38:52;;;;;;;8.45;4.13;;;;;;;11.24;100.00;95847.13;1034379;28;20018;-65
2021/08/03 01:39:34;;;;;;;8.70;4.47;;;;;;;11.22;100.00;95841.34;1035359;28;20083;-65
2021/08/03 01:40:06;;;;;;;7.05;4.28;;;;;;;11.26;100.00;95855.53;1031577;28;20014;-65
2021/08/03 01:40:40;;;;;;;5.03;4.03;;;;;;;11.19;100.00;95855.00;1032683;28;20269;-65
2021/08/03 01:41:16;;;;;;;6.45;4.47;;;;;;;11.22;100.00;95844.75;1035379;28;20253;-62
2021/08/03 01:41:48;;;;;;;8.48;4.28;;;;;;;11.25;100.00;95848.69;1030535;28;20266;-65
2021/08/03 01:42:19;;;;;;;6.03;4.47;;;;;;;11.24;100.00;95849.75;1028376;28;20306;-65
2021/08/03 01:42:50;;;;;;;6.10;5.10;;;;;;;11.24;100.00;95860.28;1039484;28;20260;-65
2021/08/03 01:43:21;;;;;;;5.63;4.65;;;;;;;11.23;100.00;95856.84;1033293;28;20021;-61
2021/08/03 01:43:51;;;;;;;6.53;4.50;;;;;;;11.21;100.00;95853.69;1037110;28;20264;-64
2021/08/03 01:44:22;;;;;;;6.28;4.63;;;;;;;11.23;100.00;95856.84;1034447;28;20048;-64
2021/08/03 01:44:52;;;;;;;7.40;4.20;;;;;;;11.15;100.00;95844.25;1030541;28;20018;-63
2021/08/03 01:45:23;;;;;;;5.68;4.13;;;;;;;11.21;100.00;95850.28;1023141;29;20051;-64
2021/08/03 01:45:54;;;;;;;8.52;4.47;;;;;;;11.22;100.00;95855.25;1029690;28;20034;-64
2021/08/03 01:46:25;;;;;;;6.57;3.92;;;;;;;11.23;100.00;95856.84;1026907;28;20030;-64
2021/08/03 01:46:55;;;;;;;7.70;4.25;;;;;;;11.19;100.00;95847.13;1031348;28;20257;-64
2021/08/03 01:47:26;;;;;;;4.57;4.00;;;;;;;11.25;100.00;95851.31;1028348;28;20047;-64
2021/08/03 01:47:59;;;;;;;6.70;4.38;;;;;;;11.26;100.00;95845.00;1031392;28;20030;-65
2021/08/03 01:48:29;;;;;;;5.43;4.43;;;;;;;11.26;100.00;95848.41;1031009;28;20269;-64
2021/08/03 01:49:00;;;;;;;11.35;4.63;;;;;;;11.21;100.00;95847.66;1030917;28;20518;-64
2021/08/03 01:49:34;;;;;;;6.15;4.57;;;;;;;11.22;100.00;95846.59;1023350;29;20046;-65
2021/08/03 01:50:06;;;;;;;5.40;4.00;;;;;;;11.22;100.00;95847.38;1029266;28;20424;-65
2021/08/03 01:50:37;;;;;;;7.07;3.90;;;;;;;11.21;100.00;95852.91;1039408;28;20260;-65
2021/08/03 01:51:07;;;;;;;15.07;5.40;;;;;;;11.21;100.00;95847.66;1035821;28;20256;-65
2021/08/03 01:51:39;;;;;;;13.55;5.13;;;;;;;11.20;100.00;95849.50;1034854;28;20057;-66
2021/08/03 01:52:09;;;;;;;9.18;4.85;;;;;;;11.19;100.00;95849.75;1034199;28;20995;-65
2021/08/03 01:52:40;;;;;;;9.85;4.70;;;;;;;11.16;100.00;95850.28;1027211;28;20257;-65
2021/08/03 01:53:10;;;;;;;7.13;4.35;;;;;;;11.15;100.00;95849.50;1030803;28;20022;-65
2021/08/03 01:53:43;;;;;;;6.90;4.68;;;;;;;11.15;100.00;95853.97;1031187;28;20031;-65
2021/08/03 01:54:13;;;;;;;5.82;4.10;;;;;;;11.09;100.00;95840.81;1035067;28;20100;-65
2021/08/03 01:54:44;;;;;;;7.10;4.72;;;;;;;11.15;100.00;95848.72;1032353;28;20320;-66
2021/08/03 01:55:15;;;;;;;10.95;5.40;;;;;;;11.10;100.00;95841.63;1031201;28;20480;-64
2021/08/03 01:55:46;;;;;;;12.50;4.95;;;;;;;11.15;100.00;95852.13;1030852;28;20270;-66
2021/08/03 01:56:16;;;;;;;9.18;4.47;;;;;;;11.06;100.00;95830.84;1031132;28;20137;-65
2021/08/03 01:56:47;;;;;;;7.28;4.03;;;;;;;11.09;100.00;95843.44;1035102;28;20276;-65
2021/08/03 01:57:18;;;;;;;7.50;4.25;;;;;;;11.17;100.00;95846.63;1035077;28;20969;-62
2021/08/03 01:57:48;;;;;;;8.60;4.53;;;;;;;11.17;100.00;95841.38;1035319;28;20045;-66
2021/08/03 01:58:18;;;;;;;6.25;4.90;;;;;;;11.17;100.00;95844.00;1034942;28;20292;-61
2021/08/03 01:58:49;;;;;;;6.07;4.97;;;;;;;11.19;100.00;95834.00;1039425;28;20021;-66
2021/08/03 01:59:23;;;;;;;8.25;4.70;;;;;;;11.12;100.00;95825.59;1039166;28;20037;-61
2021/08/03 01:59:53;;;;;;;9.95;5.90;;;;;;;11.17;100.00;95839.53;1040945;28;20730;-64
2021/08/03 02:00:24;;;;;;;7.10;4.63;;;;;;;11.17;100.00;95836.91;1039422;28;20029;-64
2021/08/03 02:00:54;;;;;;;7.50;5.03;;;;;;;11.18;100.00;95832.44;1027429;28;20057;-64
2021/08/03 02:01:25;;;;;;;8.05;5.30;;;;;;;11.19;100.00;95834.00;1030545;28;20049;-64
2021/08/03 02:01:55;;;;;;;11.48;5.47;;;;;;;11.13;100.00;95824.53;1033711;28;20026;-63
2021/08/03 02:02:26;;;;;;;8.77;5.20;;;;;;;11.19;100.00;95828.75;1031024;28;20136;-65
2021/08/03 02:02:56;;;;;;;7.88;5.30;;;;;;;11.20;100.00;95830.31;1031203;28;20065;-65
2021/08/03 02:03:27;;;;;;;7.88;5.05;;;;;;;11.18;100.00;95833.22;1030665;28;20022;-64
2021/08/03 02:03:57;;;;;;;7.30;4.60;;;;;;;11.18;100.00;95822.69;1026799;28;20023;-65
2021/08/03 02:04:28;;;;;;;6.97;5.40;;;;;;;11.18;100.00;95829.78;1027082;28;20031;-66
2021/08/03 02:04:58;;;;;;;11.52;5.10;;;;;;;11.18;100.00;95827.16;1028799;28;20030;-64
2021/08/03 02:05:29;;;;;;;15.02;5.50;;;;;;;11.11;100.00;95824.03;1027199;28;20511;-65
2021/08/03 02:05:59;;;;;;;16.95;5.90;;;;;;;11.15;100.00;95827.69;1031540;28;20030;-65
2021/08/03 02:06:30;;;;;;;14.65;5.28;;;;;;;11.14;100.00;95831.38;1031195;28;20022;-64
2021/08/03 02:07:01;;;;;;;11.73;5.05;;;;;;;11.13;100.00;95824.53;1035325;28;20049;-64
2021/08/03 02:07:31;;;;;;;7.13;5.05;;;;;;;11.09;100.00;95825.06;1031674;28;20254;-65
2021/08/03 02:08:02;;;;;;;6.78;4.70;;;;;;;11.11;100.00;95826.66;1035265;28;20045;-65
2021/08/03 02:08:35;;;;;;;9.60;5.55;;;;;;;11.05;100.00;95823.22;1038297;28;20026;-65
2021/08/03 02:09:07;;;;;;;8.63;5.72;;;;;;;11.09;100.00;95830.31;1034945;28;20101;-64
2021/08/03 02:09:37;;;;;;;7.30;4.93;;;;;;;11.01;100.00;95820.34;1027248;28;20258;-65
2021/08/03 02:10:08;;;;;;;22.38;6.97;;;;;;;11.01;100.00;95828.22;1030682;28;20265;-64
2021/08/03 02:10:38;;;;;;;15.07;5.38;;;;;;;10.99;100.00;95827.69;1031004;28;20031;-64
2021/08/03 02:11:09;;;;;;;8.00;5.07;;;;;;;10.98;100.00;95831.38;1031135;28;20113;-61
2021/08/03 02:11:39;;;;;;;11.50;5.40;;;;;;;10.94;100.00;95822.44;1033680;28;20407;-62
2021/08/03 02:12:11;;;;;;;26.00;6.75;;;;;;;10.98;100.00;95828.75;1030744;28;20023;-64
2021/08/03 02:12:41;;;;;;;6.35;4.80;;;;;;;10.96;100.00;95822.97;1039136;28;20036;-65
2021/08/03 02:13:11;;;;;;;8.65;4.70;;;;;;;10.96;100.00;95822.97;1039232;28;21082;-64
2021/08/03 02:13:44;;;;;;;7.85;5.22;;;;;;;10.93;100.00;95822.69;1034898;28;20036;-64
2021/08/03 02:14:14;;;;;;;8.63;5.05;;;;;;;10.94;100.00;95822.44;1035065;28;20030;-64
2021/08/03 02:14:45;;;;;;;8.50;4.97;;;;;;;10.94;100.00;95827.69;1034757;28;20306;-64
2021/08/03 02:15:16;;;;;;;8.52;5.47;;;;;;;10.94;100.00;95827.69;1035128;28;20034;-65
2021/08/03 02:15:46;;;;;;;9.00;5.82;;;;;;;10.92;100.00;95837.66;1034824;28;20112;-64
2021/08/03 02:16:17;;;;;;;8.10;4.97;;;;;;;10.91;100.00;95830.84;1034350;28;20041;-64
2021/08/03 02:16:47;;;;;;;10.10;5.45;;;;;;;10.90;100.00;95831.91;1039032;28;20025;-65
2021/08/03 02:17:19;;;;;;;11.18;4.70;;;;;;;10.91;100.00;95828.22;1035016;28;20522;-64
2021/08/03 02:17:49;;;;;;;10.95;5.35;;;;;;;10.92;100.00;95821.91;1033321;28;20034;-64
2021/08/03 02:18:20;;;;;;;10.98;5.43;;;;;;;10.93;100.00;95826.13;1031530;28;20273;-64
2021/08/03 02:18:51;;;;;;;6.20;4.53;;;;;;;10.92;100.00;95829.00;1035373;28;20092;-64
2021/08/03 02:19:21;;;;;;;6.38;5.07;;;;;;;10.92;100.00;95824.53;1035159;28;20038;-64
2021/08/03 02:19:52;;;;;;;14.73;5.05;;;;;;;10.93;100.00;95826.13;1035038;28;20644;-64
2021/08/03 02:20:22;;;;;;;7.40;5.60;;;;;;;10.94;100.00;95822.44;1033584;28;20092;-64
2021/08/03 02:20:53;;;;;;;9.60;5.20;;;;;;;10.92;100.00;95829.00;1027137;28;20062;-64
2021/08/03 02:21:24;;;;;;;9.50;5.57;;;;;;;10.84;100.00;95820.59;1034523;28;20025;-63
2021/08/03 02:21:54;;;;;;;6.95;5.55;;;;;;;10.87;100.00;95827.19;1038189;28;20029;-63
2021/08/03 02:22:25;;;;;;;10.15;6.03;;;;;;;10.85;100.00;95827.41;1039326;28;20080;-64
2021/08/03 02:22:55;;;;;;;9.15;5.55;;;;;;;10.85;100.00;95829.25;1037253;28;20045;-61
2021/08/03 02:23:25;;;;;;;6.45;4.82;;;;;;;10.84;100.00;95830.31;1035344;28;20113;-65
2021/08/03 02:23:56;;;;;;;9.30;5.47;;;;;;;10.78;100.00;95820.84;1034911;28;20049;-64
2021/08/03 02:24:26;;;;;;;14.63;6.10;;;;;;;10.82;100.00;95833.19;1032221;28;20105;-64
2021/08/03 02:24:57;;;;;;;11.88;5.03;;;;;;;10.81;100.00;95828.22;1039215;28;20503;-64
2021/08/03 02:25:27;;;;;;;8.80;5.20;;;;;;;10.78;100.00;95828.72;1043098;28;20870;-64
2021/08/03 02:25:58;;;;;;;11.30;6.40;;;;;;;10.79;100.00;95825.84;1043402;28;20482;-64
2021/08/03 02:26:28;;;;;;;9.95;6.22;;;;;;;10.80;100.00;95827.44;1047220;28;20051;-64
2021/08/03 02:26:59;;;;;;;9.73;6.43;;;;;;;10.78;100.00;95826.91;1047177;28;20119;-64
2021/08/03 02:27:29;;;;;;;7.03;4.88;;;;;;;10.77;100.00;95832.41;1043205;28;20059;-65
2021/08/03 02:27:59;;;;;;;8.23;4.90;;;;;;;10.76;100.00;95828.19;1042874;28;20580;-64
2021/08/03 02:28:30;;;;;;;8.57;5.43;;;;;;;10.73;100.00;95826.09;1035028;28;20033;-65
2021/08/03 02:29:00;;;;;;;8.25;5.07;;;;;;;10.73;100.00;95826.09;1034613;28;20033;-64
2021/08/03 02:29:32;;;;;;;9.57;5.75;;;;;;;10.72;100.00;95825.31;1038790;28;20025;-64
2021/08/03 02:30:02;;;;;;;10.30;5.43;;;;;;;10.71;100.00;95828.19;1031123;28;20178;-64
2021/08/03 02:30:33;;;;;;;11.15;5.45;;;;;;;10.71;100.00;95822.97;1033501;28;20328;-64
2021/08/03 02:31:32;;;;;;;8.50;5.38;;;;;;;10.65;100.00;95813.50;1039107;28;20075;-65
2021/08/03 02:32:16;;;;;;;8.13;5.07;;;;;;;10.65;100.00;95821.38;1038424;28;20033;-65
2021/08/03 02:32:51;;;;;;;13.73;5.40;;;;;;;10.61;100.00;95818.47;1040692;28;20332;-64
2021/08/03 02:33:29;;;;;;;8.52;5.03;;;;;;;10.60;100.00;95828.19;1035724;28;20308;-63
2021/08/03 02:34:24;;;;;;;14.38;5.45;;;;;;;10.55;100.00;95816.88;1033595;28;20278;-64